Time;durP1;ratioP1;P1;durP2;ratioP2;P2;SDS_P1;SDS_P2;PMS_P1;PMS_P2;Temp;Humidity;BMP_temperature;BMP_pressure;BME280_temperature;BME280_humidity;BME280_pressure;Samples;Min_cycle;Max_cycle;Signal;HPM_P1;HPM_P2
2021/06/25 00:00:00;;;;;;;4.60;3.35;;;;;;;;;;5034034;28;20045;-67
2021/06/25 00:02:26;;;;;;;3.53;3.17;;;;;;;;;;5034682;28;20037;-67
2021/06/25 00:04:52;;;;;;;3.80;3.47;;;;;;;;;;5034633;28;20037;-67
2021/06/25 00:07:17;;;;;;;6.18;3.83;;;;;;;;;;5034062;28;20037;-67
2021/06/25 00:09:43;;;;;;;3.75;3.33;;;;;;;;;;5034257;28;20039;-67
2021/06/25 00:12:09;;;;;;;3.45;2.80;;;;;;;;;;5032747;28;20112;-67
2021/06/25 00:14:35;;;;;;;4.68;2.83;;;;;;;;;;5034346;28;20104;-67
2021/06/25 00:17:02;;;;;;;6.80;3.22;;;;;;;;;;5033985;28;20040;-67
2021/06/25 00:19:28;;;;;;;3.22;2.97;;;;;;;;;;5034007;28;20026;-67
2021/06/25 00:21:53;;;;;;;5.47;3.30;;;;;;;;;;5049934;28;20024;-66
2021/06/25 00:24:19;;;;;;;3.55;2.70;;;;;;;;;;5034260;28;20481;-67
2021/06/25 00:26:44;;;;;;;2.97;2.67;;;;;;;;;;5033929;28;20055;-66
2021/06/25 00:29:10;;;;;;;3.63;2.65;;;;;;;;;;5034096;28;20030;-66
2021/06/25 00:31:36;;;;;;;5.78;3.15;;;;;;;;;;5033735;28;20079;-66
2021/06/25 00:34:02;;;;;;;4.93;3.22;;;;;;;;;;5033911;28;20026;-66
2021/06/25 00:36:27;;;;;;;3.75;3.00;;;;;;;;;;5033911;28;20025;-66
2021/06/25 00:38:53;;;;;;;2.97;2.42;;;;;;;;;;5032647;28;20362;-66
2021/06/25 00:41:18;;;;;;;3.85;3.28;;;;;;;;;;5032686;28;20017;-66
2021/06/25 00:43:44;;;;;;;4.03;3.00;;;;;;;;;;5033409;28;20029;-66
2021/06/25 00:46:09;;;;;;;2.88;2.63;;;;;;;;;;5032545;28;20028;-66
2021/06/25 00:48:35;;;;;;;3.10;2.58;;;;;;;;;;5032319;28;20475;-66
2021/06/25 00:51:00;;;;;;;2.85;2.65;;;;;;;;;;5033542;28;20071;-67
2021/06/25 00:53:28;;;;;;;4.25;2.55;;;;;;;;;;5033772;28;20350;-67
2021/06/25 00:55:54;;;;;;;2.75;2.55;;;;;;;;;;5033561;28;20013;-64
2021/06/25 00:58:19;;;;;;;3.20;2.75;;;;;;;;;;5033403;28;20072;-68
2021/06/25 01:00:45;;;;;;;3.08;2.85;;;;;;;;;;5033370;28;20090;-68
2021/06/25 01:03:11;;;;;;;6.38;2.80;;;;;;;;;;5032442;28;20488;-68
2021/06/25 01:05:37;;;;;;;2.88;2.67;;;;;;;;;;5033248;28;20017;-68
2021/06/25 01:08:04;;;;;;;3.67;2.53;;;;;;;;;;5033583;28;20041;-68
2021/06/25 01:10:30;;;;;;;4.15;2.67;;;;;;;;;;5048701;28;20025;-68
2021/06/25 01:12:55;;;;;;;6.18;2.53;;;;;;;;;;5033563;28;20036;-68
2021/06/25 01:15:21;;;;;;;3.05;2.50;;;;;;;;;;5031642;28;20495;-68
2021/06/25 01:17:46;;;;;;;3.00;2.45;;;;;;;;;;5033418;28;20034;-67
2021/06/25 01:20:13;;;;;;;3.20;2.65;;;;;;;;;;5033492;28;20017;-67
2021/06/25 01:22:40;;;;;;;3.47;2.50;;;;;;;;;;5033403;28;20044;-66
2021/06/25 01:25:11;;;;;;;4.70;2.72;;;;;;;;;;5033294;28;20029;-68
2021/06/25 01:27:38;;;;;;;3.58;2.22;;;;;;;;;;5031803;28;20086;-67
2021/06/25 01:30:04;;;;;;;10.77;3.90;;;;;;;;;;5033303;28;20041;-68
2021/06/25 01:32:30;;;;;;;7.18;3.28;;;;;;;;;;5032884;28;20489;-69
2021/06/25 01:34:55;;;;;;;4.88;2.92;;;;;;;;;;5033292;28;20079;-69
2021/06/25 01:37:21;;;;;;;5.57;2.80;;;;;;;;;;5033310;28;20087;-68
2021/06/25 01:39:48;;;;;;;4.25;3.25;;;;;;;;;;5032646;28;20549;-67
2021/06/25 01:42:14;;;;;;;4.72;3.65;;;;;;;;;;5033034;28;20030;-68
2021/06/25 01:44:39;;;;;;;4.85;4.10;;;;;;;;;;5033212;28;20108;-64
2021/06/25 01:47:05;;;;;;;4.60;3.72;;;;;;;;;;5033200;28;20393;-65
2021/06/25 01:49:31;;;;;;;6.28;3.55;;;;;;;;;;5033129;28;20465;-65
2021/06/25 01:51:57;;;;;;;4.32;3.92;;;;;;;;;;5032987;28;20025;-67
2021/06/25 01:54:22;;;;;;;5.30;4.00;;;;;;;;;;5033222;28;20025;-67
2021/06/25 01:56:48;;;;;;;4.57;3.85;;;;;;;;;;5031567;28;20040;-66
2021/06/25 01:59:13;;;;;;;17.15;4.90;;;;;;;;;;5032634;28;20049;-67
2021/06/25 02:01:39;;;;;;;17.40;5.25;;;;;;;;;;5033041;28;20385;-65
2021/06/25 02:04:04;;;;;;;4.65;4.13;;;;;;;;;;5033269;28;20029;-64
2021/06/25 02:06:30;;;;;;;10.85;4.78;;;;;;;;;;5033145;28;20033;-65
2021/06/25 02:08:55;;;;;;;4.95;4.32;;;;;;;;;;5033000;28;20047;-64
2021/06/25 02:11:23;;;;;;;7.78;4.60;;;;;;;;;;5032987;28;20036;-65
2021/06/25 02:13:48;;;;;;;8.65;4.93;;;;;;;;;;5032679;28;20012;-65
2021/06/25 02:16:14;;;;;;;5.70;4.00;;;;;;;;;;5032901;28;20391;-65
2021/06/25 02:18:39;;;;;;;4.93;3.45;;;;;;;;;;5032560;28;20022;-65
2021/06/25 02:21:05;;;;;;;3.92;3.50;;;;;;;;;;5031288;28;20053;-63
2021/06/25 02:23:30;;;;;;;4.47;3.58;;;;;;;;;;5032765;28;20025;-63
2021/06/25 02:25:56;;;;;;;4.45;3.30;;;;;;;;;;5032950;28;20488;-64
2021/06/25 02:28:21;;;;;;;3.72;3.30;;;;;;;;;;5036459;28;20053;-65
2021/06/25 02:30:47;;;;;;;4.70;3.50;;;;;;;;;;5035241;28;20106;-65
2021/06/25 02:33:12;;;;;;;3.53;3.20;;;;;;;;;;5036223;28;20024;-65
2021/06/25 02:35:38;;;;;;;3.25;2.95;;;;;;;;;;5035585;28;20120;-65
2021/06/25 02:38:03;;;;;;;3.50;3.20;;;;;;;;;;5035895;28;20381;-65
2021/06/25 02:40:29;;;;;;;5.63;3.17;;;;;;;;;;5036429;28;20461;-65
2021/06/25 02:42:55;;;;;;;5.93;3.35;;;;;;;;;;5036256;28;20056;-67
2021/06/25 02:45:20;;;;;;;5.60;4.40;;;;;;;;;;5035824;28;20032;-68
2021/06/25 02:47:46;;;;;;;4.35;3.97;;;;;;;;;;5035892;28;20412;-68
2021/06/25 02:50:11;;;;;;;3.47;3.20;;;;;;;;;;5035622;28;20028;-66
2021/06/25 02:52:39;;;;;;;4.32;3.42;;;;;;;;;;5035936;28;20017;-65
2021/06/25 02:55:05;;;;;;;3.50;3.20;;;;;;;;;;5034832;28;20032;-64
2021/06/25 02:57:31;;;;;;;3.25;3.05;;;;;;;;;;5035979;28;20010;-65
2021/06/25 02:59:57;;;;;;;3.85;3.20;;;;;;;;;;5035098;28;20386;-64
2021/06/25 03:02:22;;;;;;;5.40;3.60;;;;;;;;;;5035732;28;20029;-64
2021/06/25 03:04:48;;;;;;;4.28;3.20;;;;;;;;;;5034266;28;20040;-65
2021/06/25 03:07:13;;;;;;;4.38;3.38;;;;;;;;;;5035569;28;20024;-65
2021/06/25 03:09:40;;;;;;;3.65;3.42;;;;;;;;;;5034592;28;20125;-66
2021/06/25 03:12:05;;;;;;;3.85;3.35;;;;;;;;;;5035528;28;20075;-68
2021/06/25 03:14:31;;;;;;;5.82;3.97;;;;;;;;;;5035260;28;20477;-68
2021/06/25 03:16:56;;;;;;;6.47;3.90;;;;;;;;;;5035680;28;20017;-68
2021/06/25 03:19:22;;;;;;;5.63;4.07;;;;;;;;;;5050716;28;20079;-67
2021/06/25 03:21:47;;;;;;;5.78;3.90;;;;;;;;;;5035253;28;20022;-67
2021/06/25 03:24:13;;;;;;;6.43;3.83;;;;;;;;;;5035306;28;20083;-67
2021/06/25 03:26:39;;;;;;;4.68;3.47;;;;;;;;;;5035414;28;20439;-67
2021/06/25 03:29:04;;;;;;;5.15;3.25;;;;;;;;;;5035169;28;20033;-67
2021/06/25 03:31:29;;;;;;;3.55;2.70;;;;;;;;;;5034385;28;20033;-67
2021/06/25 03:33:55;;;;;;;3.15;2.85;;;;;;;;;;5033786;28;20029;-65
2021/06/25 03:36:20;;;;;;;3.60;2.63;;;;;;;;;;5035041;28;20017;-67
2021/06/25 03:38:49;;;;;;;3.42;2.45;;;;;;;;;;5033519;28;20382;-68
2021/06/25 03:41:15;;;;;;;2.70;2.55;;;;;;;;;;5035125;28;20025;-68
2021/06/25 03:43:40;;;;;;;3.15;2.85;;;;;;;;;;5035054;28;20025;-68
2021/06/25 03:46:07;;;;;;;3.35;3.08;;;;;;;;;;5034730;28;20072;-68
2021/06/25 03:48:32;;;;;;;3.08;2.75;;;;;;;;;;5034683;28;20124;-68
2021/06/25 03:50:58;;;;;;;3.05;2.85;;;;;;;;;;5034361;28;20104;-65
2021/06/25 03:53:23;;;;;;;4.45;2.83;;;;;;;;;;5034583;28;20027;-63
2021/06/25 03:58:34;;;;;;;4.10;2.75;;;;;;;;;;5033520;28;20457;-66
2021/06/25 04:01:00;;;;;;;3.00;2.80;;;;;;;;;;5034319;28;20057;-63
2021/06/25 04:03:25;;;;;;;3.28;2.95;;;;;;;;;;5034193;28;20037;-63
2021/06/25 04:05:51;;;;;;;3.42;3.05;;;;;;;;;;5034439;28;20075;-63
2021/06/25 04:08:18;;;;;;;3.25;3.00;;;;;;;;;;5034112;28;20030;-63
2021/06/25 04:10:44;;;;;;;2.50;2.30;;;;;;;;;;5034210;28;20013;-63
2021/06/25 04:13:10;;;;;;;5.18;2.47;;;;;;;;;;5034808;28;20523;-63
2021/06/25 04:15:36;;;;;;;3.53;2.70;;;;;;;;;;5034342;28;20155;-62
2021/06/25 04:18:02;;;;;;;2.80;2.60;;;;;;;;;;5034345;28;20108;-63
2021/06/25 04:20:27;;;;;;;3.28;2.80;;;;;;;;;;5034652;28;20033;-62
2021/06/25 04:22:54;;;;;;;3.60;2.28;;;;;;;;;;5033766;28;20031;-65
2021/06/25 04:25:19;;;;;;;2.30;2.20;;;;;;;;;;5033981;28;20020;-66
2021/06/25 04:27:45;;;;;;;2.75;2.55;;;;;;;;;;5034340;28;20122;-64
2021/06/25 04:30:12;;;;;;;2.88;2.47;;;;;;;;;;5033844;28;20021;-63
2021/06/25 04:32:38;;;;;;;3.75;2.95;;;;;;;;;;5033896;28;20029;-63
2021/06/25 04:35:04;;;;;;;4.35;2.83;;;;;;;;;;5033882;28;20366;-63
2021/06/25 04:37:30;;;;;;;4.47;2.63;;;;;;;;;;5033694;28;20045;-63
2021/06/25 04:39:55;;;;;;;3.45;2.80;;;;;;;;;;5033635;28;20503;-63
2021/06/25 04:42:21;;;;;;;2.30;2.20;;;;;;;;;;5034021;28;20091;-63
2021/06/25 04:44:46;;;;;;;5.00;2.55;;;;;;;;;;5033758;28;20092;-63
2021/06/25 04:47:12;;;;;;;2.83;2.60;;;;;;;;;;5033564;28;20128;-63
2021/06/25 04:49:38;;;;;;;3.03;2.72;;;;;;;;;;5032617;28;20033;-63
2021/06/25 04:52:04;;;;;;;3.30;2.92;;;;;;;;;;5033345;28;20021;-63
2021/06/25 04:54:30;;;;;;;3.15;2.95;;;;;;;;;;5033923;28;20010;-63
2021/06/25 04:56:56;;;;;;;2.80;2.60;;;;;;;;;;5032618;28;20504;-64
2021/06/25 04:59:21;;;;;;;4.13;3.03;;;;;;;;;;5033392;28;20033;-64
2021/06/25 05:01:47;;;;;;;3.20;2.78;;;;;;;;;;5032651;28;20034;-62
2021/06/25 05:04:13;;;;;;;3.35;3.05;;;;;;;;;;5033274;28;20026;-62
2021/06/25 05:06:38;;;;;;;5.35;3.72;;;;;;;;;;5033116;28;20160;-63
2021/06/25 05:09:04;;;;;;;3.42;3.13;;;;;;;;;;5033400;28;20057;-63
2021/06/25 05:11:29;;;;;;;3.72;3.25;;;;;;;;;;5033168;28;20029;-63
2021/06/25 05:13:55;;;;;;;3.33;3.05;;;;;;;;;;5033286;28;20014;-63
2021/06/25 05:16:21;;;;;;;3.65;3.38;;;;;;;;;;5031920;28;20113;-63
2021/06/25 05:18:46;;;;;;;3.83;3.53;;;;;;;;;;5033308;28;20021;-63
2021/06/25 05:21:12;;;;;;;4.18;3.83;;;;;;;;;;5033375;28;20429;-63
2021/06/25 05:23:37;;;;;;;4.38;3.85;;;;;;;;;;5032894;28;20056;-63
2021/06/25 05:26:03;;;;;;;4.20;3.80;;;;;;;;;;5033184;28;20083;-63
2021/06/25 05:28:29;;;;;;;5.70;3.70;;;;;;;;;;5033202;28;20031;-63
2021/06/25 05:30:54;;;;;;;4.25;3.85;;;;;;;;;;5033035;28;20060;-63
2021/06/25 05:33:20;;;;;;;4.18;3.78;;;;;;;;;;5033174;28;20416;-63
2021/06/25 05:35:46;;;;;;;4.93;4.43;;;;;;;;;;5033029;28;20026;-63
2021/06/25 05:38:14;;;;;;;7.38;4.97;;;;;;;;;;5033105;28;20018;-63
2021/06/25 05:40:40;;;;;;;5.82;5.25;;;;;;;;;;5033155;28;20108;-62
2021/06/25 05:43:06;;;;;;;5.75;4.93;;;;;;;;;;5033609;28;20017;-63
2021/06/25 05:45:33;;;;;;;7.53;5.05;;;;;;;;;;5032938;28;20469;-63
2021/06/25 05:47:58;;;;;;;7.18;5.00;;;;;;;;;;5033063;28;20014;-65
2021/06/25 05:50:24;;;;;;;8.95;5.05;;;;;;;;;;5033009;28;20028;-64
2021/06/25 05:52:50;;;;;;;6.90;5.28;;;;;;;;;;5031730;28;20020;-65
2021/06/25 05:55:15;;;;;;;7.25;4.70;;;;;;;;;;5031695;28;20032;-64
2021/06/25 05:57:42;;;;;;;7.25;4.82;;;;;;;;;;5033235;28;20365;-64
2021/06/25 06:00:08;;;;;;;6.75;4.63;;;;;;;;;;5032098;28;20144;-64
2021/06/25 06:02:34;;;;;;;6.88;4.90;;;;;;;;;;5036639;28;20104;-61
2021/06/25 06:05:00;;;;;;;7.18;4.07;;;;;;;;;;5036518;28;20025;-62
2021/06/25 06:07:25;;;;;;;6.55;5.38;;;;;;;;;;5036395;28;20147;-61
2021/06/25 06:09:52;;;;;;;9.20;5.90;;;;;;;;;;5036663;28;20033;-61
2021/06/25 06:12:18;;;;;;;8.40;5.18;;;;;;;;;;5036524;28;20029;-61
2021/06/25 06:14:43;;;;;;;10.23;5.72;;;;;;;;;;5037243;28;20028;-61
2021/06/25 06:17:09;;;;;;;7.90;6.05;;;;;;;;;;5036430;28;20471;-63
2021/06/25 06:19:40;;;;;;;7.30;6.53;;;;;;;;;;5035016;28;20036;-63
2021/06/25 06:35:35;;;;;;;11.75;6.93;;;;;;;;;;5035075;28;20029;-64
2021/06/25 06:38:03;;;;;;;12.02;7.97;;;;;;;;;;5036065;28;20056;-64
2021/06/25 06:40:29;;;;;;;15.65;10.80;;;;;;;;;;5035801;28;20030;-64
2021/06/25 06:42:55;;;;;;;16.23;11.52;;;;;;;;;;5036050;28;20013;-64
2021/06/25 06:45:20;;;;;;;21.80;10.70;;;;;;;;;;5034922;28;20029;-64
2021/06/25 06:47:46;;;;;;;15.65;10.75;;;;;;;;;;5033913;28;20116;-63
2021/06/25 06:50:12;;;;;;;19.02;11.40;;;;;;;;;;5033760;28;20451;-63
2021/06/25 06:52:37;;;;;;;22.65;11.32;;;;;;;;;;5034352;28;20479;-63
2021/06/25 06:55:03;;;;;;;12.10;8.50;;;;;;;;;;5034552;28;20477;-64
2021/06/25 06:57:28;;;;;;;14.18;9.85;;;;;;;;;;5034840;28;20029;-63
2021/06/25 06:59:54;;;;;;;11.43;10.00;;;;;;;;;;5034114;28;20117;-64
2021/06/25 07:02:19;;;;;;;12.27;8.95;;;;;;;;;;5035164;28;20029;-63
2021/06/25 07:04:44;;;;;;;10.68;8.75;;;;;;;;;;5035237;28;20029;-64
2021/06/25 07:07:10;;;;;;;10.68;8.23;;;;;;;;;;5034007;28;20044;-63
2021/06/25 07:09:35;;;;;;;8.93;8.07;;;;;;;;;;5034657;28;20033;-64
2021/06/25 07:12:01;;;;;;;9.93;8.75;;;;;;;;;;5033186;28;20028;-63
2021/06/25 07:14:26;;;;;;;11.05;8.20;;;;;;;;;;5034379;28;20084;-63
2021/06/25 07:16:52;;;;;;;8.48;7.68;;;;;;;;;;5034140;28;20016;-63
2021/06/25 07:19:17;;;;;;;8.27;7.47;;;;;;;;;;5033501;28;20108;-63
2021/06/25 07:21:43;;;;;;;8.25;7.15;;;;;;;;;;5034777;28;20044;-64
2021/06/25 07:24:08;;;;;;;10.95;9.88;;;;;;;;;;5050590;28;20052;-63
2021/06/25 07:26:34;;;;;;;11.50;9.13;;;;;;;;;;5035223;28;20021;-63
2021/06/25 07:28:59;;;;;;;10.52;9.52;;;;;;;;;;5033602;28;20036;-63
2021/06/25 07:31:25;;;;;;;10.52;9.27;;;;;;;;;;5034701;28;20111;-64
2021/06/25 07:33:50;;;;;;;19.88;17.98;;;;;;;;;;5035027;28;20112;-64
2021/06/25 07:36:16;;;;;;;12.52;10.43;;;;;;;;;;5033933;28;20014;-64
2021/06/25 07:38:42;;;;;;;11.18;9.70;;;;;;;;;;5034725;28;20025;-64
2021/06/25 07:41:07;;;;;;;12.00;9.55;;;;;;;;;;5034648;28;20491;-64
2021/06/25 07:43:33;;;;;;;11.40;9.05;;;;;;;;;;5034683;28;20484;-64
2021/06/25 07:45:58;;;;;;;12.07;9.82;;;;;;;;;;5034457;28;20104;-64
2021/06/25 07:48:24;;;;;;;12.93;9.80;;;;;;;;;;5033490;28;20164;-64
2021/06/25 07:50:49;;;;;;;8.48;7.78;;;;;;;;;;5034645;28;20481;-64
2021/06/25 07:53:15;;;;;;;10.82;9.73;;;;;;;;;;5034588;28;20025;-64
2021/06/25 07:55:43;;;;;;;10.75;9.65;;;;;;;;;;5034515;28;20029;-65
2021/06/25 07:58:12;;;;;;;10.15;8.55;;;;;;;;;;5034616;28;20108;-65
2021/06/25 08:00:38;;;;;;;10.07;9.18;;;;;;;;;;5034147;28;20406;-64
2021/06/25 08:03:05;;;;;;;9.82;8.88;;;;;;;;;;5032845;28;20469;-64
2021/06/25 08:05:30;;;;;;;10.07;9.18;;;;;;;;;;5034234;28;20087;-64
2021/06/25 08:07:56;;;;;;;10.07;8.73;;;;;;;;;;5033218;28;20037;-64
2021/06/25 08:10:21;;;;;;;10.10;9.15;;;;;;;;;;5034483;28;20017;-64
2021/06/25 08:12:47;;;;;;;11.35;10.27;;;;;;;;;;5034144;28;20080;-64
2021/06/25 08:15:12;;;;;;;12.85;10.43;;;;;;;;;;5034147;28;20052;-64
2021/06/25 08:17:38;;;;;;;11.50;10.30;;;;;;;;;;5033937;28;20096;-64
2021/06/25 08:20:04;;;;;;;11.45;10.38;;;;;;;;;;5034164;28;20049;-64
2021/06/25 08:22:30;;;;;;;12.68;11.40;;;;;;;;;;5033773;28;20031;-65
2021/06/25 08:24:56;;;;;;;10.70;9.43;;;;;;;;;;5034088;28;20540;-64
2021/06/25 08:27:21;;;;;;;12.13;10.60;;;;;;;;;;5032677;28;20030;-65
2021/06/25 08:29:47;;;;;;;13.82;10.52;;;;;;;;;;5033771;28;20029;-65
2021/06/25 08:32:12;;;;;;;11.52;10.35;;;;;;;;;;5034070;28;20021;-65
2021/06/25 08:34:38;;;;;;;12.13;10.93;;;;;;;;;;5034085;28;20017;-64
2021/06/25 08:37:04;;;;;;;10.70;9.60;;;;;;;;;;5033018;28;20032;-64
2021/06/25 08:39:30;;;;;;;11.90;10.80;;;;;;;;;;5034028;28;20074;-63
2021/06/25 08:42:01;;;;;;;14.38;13.02;;;;;;;;;;5033813;28;20029;-63
2021/06/25 08:44:31;;;;;;;17.30;15.45;;;;;;;;;;5033825;28;20040;-63
2021/06/25 08:46:56;;;;;;;18.17;16.25;;;;;;;;;;5034067;28;20505;-62
2021/06/25 08:49:25;;;;;;;17.67;15.93;;;;;;;;;;5033569;28;20056;-63
2021/06/25 08:51:51;;;;;;;20.05;16.45;;;;;;;;;;5033519;28;20036;-62
2021/06/25 08:54:16;;;;;;;18.73;16.35;;;;;;;;;;5033691;28;20025;-63
2021/06/25 08:56:42;;;;;;;19.42;15.65;;;;;;;;;;5033657;28;20029;-64
2021/06/25 08:59:07;;;;;;;12.35;11.05;;;;;;;;;;5032753;28;20408;-65
2021/06/25 09:01:36;;;;;;;13.85;12.48;;;;;;;;;;5033569;28;20435;-59
2021/06/25 09:04:04;;;;;;;16.67;14.90;;;;;;;;;;5033258;28;20616;-64
2021/06/25 09:06:32;;;;;;;15.52;13.77;;;;;;;;;;5033201;28;20424;-64
2021/06/25 09:09:11;;;;;;;16.65;13.95;;;;;;;;;;5033799;28;20038;-64
2021/06/25 09:11:40;;;;;;;18.17;14.68;;;;;;;;;;5032227;28;20083;-64
2021/06/25 09:14:06;;;;;;;16.90;14.50;;;;;;;;;;5033277;28;20076;-63
2021/06/25 09:16:32;;;;;;;15.68;14.10;;;;;;;;;;5033300;28;20083;-63
2021/06/25 09:18:59;;;;;;;18.40;15.48;;;;;;;;;;5033595;28;20022;-63
2021/06/25 09:21:25;;;;;;;16.80;15.00;;;;;;;;;;5033211;28;20513;-63
2021/06/25 09:23:51;;;;;;;19.55;17.45;;;;;;;;;;5032224;28;20144;-63
2021/06/25 09:26:20;;;;;;;18.88;15.65;;;;;;;;;;5033614;28;20472;-63
2021/06/25 09:28:47;;;;;;;21.67;15.47;;;;;;;;;;5033192;28;20032;-63
2021/06/25 09:31:13;;;;;;;17.05;14.88;;;;;;;;;;5033170;28;20025;-63
2021/06/25 09:33:50;;;;;;;15.73;14.10;;;;;;;;;;5033103;28;20376;-63
2021/06/25 09:36:21;;;;;;;16.98;14.80;;;;;;;;;;5034345;28;20033;-63
2021/06/25 09:38:46;;;;;;;;;;;;;;;;;;5036458;28;20511;-63
2021/06/25 09:41:16;;;;;;;14.80;13.18;;;;;;;;;;5037055;28;19905;-62
2021/06/25 09:43:42;;;;;;;;;;;;;;;;;;5037631;28;20435;-64
2021/06/25 09:46:07;;;;;;;14.32;12.82;;;;;;;;;;5037072;28;20011;-65
2021/06/25 09:48:52;;;;;;;16.67;14.02;;;;;;;;;;5036014;28;20036;-64
2021/06/25 09:51:19;;;;;;;15.35;13.57;;;;;;;;;;5036599;28;20042;-64
2021/06/25 09:54:04;;;;;;;15.88;14.15;;;;;;;;;;5036109;28;20025;-64
2021/06/25 09:56:31;;;;;;;16.23;13.82;;;;;;;;;;5036815;28;20025;-63
2021/06/25 09:59:22;;;;;;;15.23;13.57;;;;;;;;;;5036494;28;20013;-64
2021/06/25 10:01:48;;;;;;;15.23;13.60;;;;;;;;;;5037400;28;20033;-63
2021/06/25 10:04:13;;;;;;;16.10;14.45;;;;;;;;;;5036893;28;20025;-63
2021/06/25 10:06:39;;;;;;;17.77;14.75;;;;;;;;;;5036864;28;20523;-63
2021/06/25 10:09:05;;;;;;;21.10;15.73;;;;;;;;;;5036817;28;20030;-63
2021/06/25 10:11:32;;;;;;;17.58;15.68;;;;;;;;;;5036546;28;20029;-63
2021/06/25 10:13:58;;;;;;;17.70;14.70;;;;;;;;;;5035184;28;20029;-63
2021/06/25 10:16:25;;;;;;;18.27;14.80;;;;;;;;;;5036245;28;20030;-63
2021/06/25 10:18:52;;;;;;;15.68;14.15;;;;;;;;;;5036529;28;20052;-63
2021/06/25 10:21:19;;;;;;;17.98;14.63;;;;;;;;;;5036641;28;20034;-62
2021/06/25 10:23:48;;;;;;;15.20;13.70;;;;;;;;;;5035253;28;20044;-63
2021/06/25 10:26:15;;;;;;;15.00;13.45;;;;;;;;;;5036406;28;20057;-65
2021/06/25 10:28:41;;;;;;;14.55;13.15;;;;;;;;;;5036412;28;20021;-64
2021/06/25 10:31:08;;;;;;;14.43;12.93;;;;;;;;;;5035053;28;20044;-64
2021/06/25 10:33:34;;;;;;;15.30;13.75;;;;;;;;;;5036392;28;20071;-64
2021/06/25 10:36:02;;;;;;;15.95;14.18;;;;;;;;;;5036039;28;20079;-64
2021/06/25 10:38:28;;;;;;;15.13;13.63;;;;;;;;;;5036047;28;20083;-64
2021/06/25 10:40:58;;;;;;;15.88;13.88;;;;;;;;;;5036206;28;20076;-64
2021/06/25 10:43:41;;;;;;;19.30;15.80;;;;;;;;;;5036324;28;20072;-64
2021/06/25 10:46:29;;;;;;;18.85;15.18;;;;;;;;;;5035881;28;20026;-64
2021/06/25 10:48:56;;;;;;;16.27;14.57;;;;;;;;;;5034911;28;20061;-63
2021/06/25 10:51:25;;;;;;;16.80;14.60;;;;;;;;;;5035762;28;20456;-63
2021/06/25 10:54:09;;;;;;;20.50;15.35;;;;;;;;;;5035702;28;20025;-63
2021/06/25 10:56:35;;;;;;;19.58;16.13;;;;;;;;;;5035750;28;20036;-63
2021/06/25 10:59:22;;;;;;;18.67;16.73;;;;;;;;;;5035559;28;20049;-63
2021/06/25 11:02:02;;;;;;;19.95;16.80;;;;;;;;;;5035752;28;20064;-63
2021/06/25 11:04:31;;;;;;;20.35;16.27;;;;;;;;;;5035888;28;20538;-63
2021/06/25 11:06:58;;;;;;;19.55;17.48;;;;;;;;;;5035398;28;20036;-63
2021/06/25 11:09:24;;;;;;;19.52;17.48;;;;;;;;;;5035268;28;20065;-63
2021/06/25 11:12:10;;;;;;;21.63;18.23;;;;;;;;;;5034172;28;20022;-63
2021/06/25 11:14:35;;;;;;;24.23;19.95;;;;;;;;;;5035861;28;20030;-63
2021/06/25 11:17:01;;;;;;;24.90;20.42;;;;;;;;;;5035550;28;20017;-63
2021/06/25 11:19:32;;;;;;;23.75;19.48;;;;;;;;;;5035728;28;20029;-63
2021/06/25 11:21:58;;;;;;;24.10;18.95;;;;;;;;;;5035398;28;20025;-63
2021/06/25 11:24:42;;;;;;;24.23;20.73;;;;;;;;;;5035277;28;20548;-62
2021/06/25 11:27:08;;;;;;;25.83;19.73;;;;;;;;;;5035275;28;20029;-63
2021/06/25 11:29:46;;;;;;;22.50;19.13;;;;;;;;;;5035142;28;20519;-63
2021/06/25 11:32:25;;;;;;;26.50;19.65;;;;;;;;;;5035210;28;20040;-63
2021/06/25 11:34:50;;;;;;;24.02;19.75;;;;;;;;;;5035131;28;20050;-64
2021/06/25 11:37:16;;;;;;;23.70;18.13;;;;;;;;;;5033753;28;20080;-64
2021/06/25 11:39:48;;;;;;;23.98;19.55;;;;;;;;;;5034967;28;20029;-64
2021/06/25 11:42:15;;;;;;;21.35;18.38;;;;;;;;;;5034268;28;20116;-64
2021/06/25 11:44:45;;;;;;;20.75;17.50;;;;;;;;;;5034739;28;20029;-64
2021/06/25 11:47:13;;;;;;;21.55;17.77;;;;;;;;;;5033580;28;20397;-64
2021/06/25 11:52:21;;;;;;;22.02;17.13;;;;;;;;;;5034503;28;20037;-65
2021/06/25 11:54:48;;;;;;;21.90;17.02;;;;;;;;;;5034462;28;20025;-65
2021/06/25 11:57:18;;;;;;;22.20;17.92;;;;;;;;;;5034425;28;20022;-64
2021/06/25 11:59:59;;;;;;;22.23;17.70;;;;;;;;;;5033722;28;20034;-65
2021/06/25 12:02:24;;;;;;;22.70;18.00;;;;;;;;;;5034372;28;20539;-65
2021/06/25 12:04:50;;;;;;;22.35;16.40;;;;;;;;;;5033354;28;20017;-64
2021/06/25 12:07:17;;;;;;;19.35;15.95;;;;;;;;;;5034449;28;20495;-65
2021/06/25 12:09:46;;;;;;;21.17;16.90;;;;;;;;;;5033256;28;20021;-65
2021/06/25 12:12:26;;;;;;;20.30;15.93;;;;;;;;;;5033990;28;20113;-65
2021/06/25 12:14:54;;;;;;;20.83;16.80;;;;;;;;;;5034491;28;20021;-64
2021/06/25 12:17:20;;;;;;;21.73;16.92;;;;;;;;;;5034596;28;20029;-64
2021/06/25 12:20:03;;;;;;;20.00;15.18;;;;;;;;;;5034263;28;20017;-60
2021/06/25 12:22:29;;;;;;;23.23;17.92;;;;;;;;;;5034048;28;20055;-60
2021/06/25 12:24:55;;;;;;;19.63;16.85;;;;;;;;;;5032772;28;20070;-60
2021/06/25 12:27:34;;;;;;;23.10;17.02;;;;;;;;;;5032492;28;20120;-60
2021/06/25 12:30:01;;;;;;;21.88;17.38;;;;;;;;;;5034032;28;20029;-60
2021/06/25 12:32:26;;;;;;;20.10;17.65;;;;;;;;;;5034107;28;20013;-60
2021/06/25 12:34:55;;;;;;;21.15;17.00;;;;;;;;;;5032502;28;20033;-60
2021/06/25 12:37:22;;;;;;;19.05;16.15;;;;;;;;;;5034040;28;20036;-60
2021/06/25 12:39:47;;;;;;;18.33;16.30;;;;;;;;;;5033802;28;20401;-60
2021/06/25 12:42:19;;;;;;;17.55;15.73;;;;;;;;;;5033689;28;20025;-61
2021/06/25 12:44:45;;;;;;;18.55;16.65;;;;;;;;;;5033750;28;20029;-60
2021/06/25 12:47:11;;;;;;;17.15;15.35;;;;;;;;;;5033671;28;20021;-61
2021/06/25 12:49:37;;;;;;;18.25;16.33;;;;;;;;;;5033573;28;20044;-61
2021/06/25 12:52:22;;;;;;;20.58;17.27;;;;;;;;;;5032329;28;20010;-60
2021/06/25 12:54:50;;;;;;;19.48;16.48;;;;;;;;;;5033414;28;20483;-60
2021/06/25 12:57:16;;;;;;;19.25;16.50;;;;;;;;;;5033055;28;20013;-59
2021/06/25 12:59:45;;;;;;;19.73;17.48;;;;;;;;;;5032250;28;20527;-61
2021/06/25 13:02:11;;;;;;;21.58;18.23;;;;;;;;;;5032890;28;20469;-61
2021/06/25 13:04:40;;;;;;;21.58;18.92;;;;;;;;;;5033568;28;20113;-60
2021/06/25 13:07:08;;;;;;;22.83;19.23;;;;;;;;;;5048990;28;20040;-60
2021/06/25 13:09:38;;;;;;;23.73;19.95;;;;;;;;;;5033152;28;20035;-60
2021/06/25 13:12:04;;;;;;;;;;;;;;;;;;5033564;28;20084;-61
2021/06/25 13:14:52;;;;;;;23.23;19.10;;;;;;;;;;5033355;28;20287;-60
2021/06/25 13:17:20;;;;;;;21.83;18.65;;;;;;;;;;5026663;28;20076;-59
2021/06/25 13:19:45;;;;;;;20.73;17.65;;;;;;;;;;5048747;28;20014;-59
2021/06/25 13:22:29;;;;;;;18.92;16.92;;;;;;;;;;5033151;28;20062;-60
2021/06/25 13:25:03;;;;;;;21.30;17.25;;;;;;;;;;5033341;28;20456;-59
2021/06/25 13:27:29;;;;;;;19.92;16.38;;;;;;;;;;5015695;28;20034;-60
2021/06/25 13:29:55;;;;;;;16.85;15.05;;;;;;;;;;5032062;28;20075;-59
2021/06/25 13:32:22;;;;;;;16.83;15.10;;;;;;;;;;5031434;28;20037;-60
2021/06/25 13:34:51;;;;;;;16.80;14.95;;;;;;;;;;5033545;28;20036;-58
2021/06/25 13:37:17;;;;;;;14.90;13.37;;;;;;;;;;5033340;28;20026;-60
2021/06/25 13:39:51;;;;;;;16.60;14.90;;;;;;;;;;5033143;28;20385;-60
2021/06/25 13:42:17;;;;;;;17.00;14.43;;;;;;;;;;5033368;28;20086;-60
2021/06/25 13:44:43;;;;;;;17.02;14.88;;;;;;;;;;5032070;28;20017;-60
2021/06/25 13:47:10;;;;;;;16.77;14.77;;;;;;;;;;5033184;28;20033;-60
2021/06/25 13:49:37;;;;;;;15.50;13.68;;;;;;;;;;5033044;28;20152;-60
2021/06/25 13:52:21;;;;;;;16.50;13.23;;;;;;;;;;5048447;28;20029;-60
2021/06/25 13:54:46;;;;;;;15.07;13.48;;;;;;;;;;5033066;28;20029;-60
2021/06/25 13:57:18;;;;;;;17.48;14.27;;;;;;;;;;5031839;28;20469;-60
2021/06/25 13:59:43;;;;;;;17.73;15.13;;;;;;;;;;5032481;28;20030;-60
2021/06/25 14:02:09;;;;;;;18.05;15.35;;;;;;;;;;5032974;28;20108;-60
2021/06/25 14:04:35;;;;;;;16.35;14.77;;;;;;;;;;5032960;28;20021;-60
2021/06/25 14:07:00;;;;;;;17.67;15.90;;;;;;;;;;5033127;28;20037;-60
2021/06/25 14:09:28;;;;;;;16.70;14.60;;;;;;;;;;5033262;28;20440;-60
2021/06/25 14:11:53;;;;;;;17.33;15.52;;;;;;;;;;5033181;28;20051;-60
2021/06/25 14:14:19;;;;;;;16.85;15.15;;;;;;;;;;5032998;28;20477;-61
2021/06/25 14:16:44;;;;;;;17.25;15.40;;;;;;;;;;5032713;28;20022;-60
2021/06/25 14:19:14;;;;;;;21.40;15.80;;;;;;;;;;5032559;28;20018;-60
2021/06/25 14:21:41;;;;;;;17.10;15.45;;;;;;;;;;5032680;28;20033;-60
2021/06/25 14:24:08;;;;;;;18.58;15.68;;;;;;;;;;5036550;28;20030;-59
2021/06/25 14:26:33;;;;;;;17.38;15.35;;;;;;;;;;5036740;28;20029;-60
2021/06/25 14:28:59;;;;;;;15.95;14.35;;;;;;;;;;5036181;28;20393;-60
2021/06/25 14:31:29;;;;;;;16.02;14.32;;;;;;;;;;5034805;28;20040;-61
2021/06/25 14:33:54;;;;;;;14.95;13.48;;;;;;;;;;5036156;28;20424;-60
2021/06/25 14:36:21;;;;;;;15.18;13.57;;;;;;;;;;5036406;28;20025;-60
2021/06/25 14:38:47;;;;;;;15.05;13.50;;;;;;;;;;5036279;28;20025;-62
2021/06/25 14:41:13;;;;;;;15.20;13.35;;;;;;;;;;5036459;28;20079;-63
2021/06/25 14:43:39;;;;;;;14.70;10.45;;;;;;;;;;5036121;28;20036;-64
2021/06/25 14:46:04;;;;;;;18.23;14.80;;;;;;;;;;5036372;28;20116;-63
2021/06/25 14:48:30;;;;;;;16.80;15.00;;;;;;;;;;5036224;28;20029;-63